createdAt,value
2019-03-03T00:01:35.406Z,60.09
2019-03-03T00:04:41.105Z,61.07
2019-03-03T00:07:46.799Z,62.04
2019-03-03T00:10:52.508Z,60.89
2019-03-03T00:13:59.297Z,60.16
2019-03-03T00:17:05.023Z,61.29
2019-03-03T00:20:11.185Z,59.63
2019-03-03T00:23:16.923Z,60.61
2019-03-03T00:26:22.643Z,60.22
2019-03-03T00:29:28.473Z,60.64
2019-03-03T00:32:34.368Z,61.11
2019-03-03T00:35:40.059Z,60.82
2019-03-03T00:39:04.650Z,60.65
2019-03-03T00:42:29.936Z,60.94
2019-03-03T00:45:54.496Z,61.92
2019-03-03T00:49:07.066Z,62.15
2019-03-03T00:52:30.503Z,61.64
2019-03-03T00:55:53.597Z,61.32
2019-03-03T00:59:20.955Z,62.58
2019-03-03T01:02:40.222Z,62.48
2019-03-03T01:05:58.992Z,65.01
2019-03-03T01:09:27.861Z,63.83
2019-03-03T01:13:04.645Z,63.52
2019-03-03T01:16:29.991Z,64.29
2019-03-03T01:20:09.647Z,64.44
2019-03-03T01:23:32.930Z,62.88
2019-03-03T01:26:38.760Z,61.41
2019-03-03T01:29:44.475Z,61.58
2019-03-03T01:32:50.184Z,61.94
2019-03-03T01:35:55.907Z,60.80
2019-03-03T01:39:01.628Z,61.58
2019-03-03T01:42:08.898Z,60.24
2019-03-03T01:45:14.848Z,61.05
2019-03-03T01:48:20.582Z,59.84
2019-03-03T01:51:26.305Z,62.31
2019-03-03T01:54:32.117Z,64.02
2019-03-03T01:57:37.948Z,60.76
2019-03-03T02:00:44.982Z,62.00
2019-03-03T02:03:50.944Z,62.22
2019-03-03T02:06:56.999Z,62.94
2019-03-03T02:10:02.710Z,63.09
2019-03-03T02:13:08.856Z,64.94
2019-03-03T02:16:14.664Z,67.40
2019-03-03T02:19:20.506Z,66.60
2019-03-03T02:22:26.230Z,64.31
2019-03-03T02:25:31.947Z,63.52
2019-03-03T02:28:37.718Z,63.54
2019-03-03T02:31:43.435Z,62.84
2019-03-03T02:34:49.185Z,63.14
2019-03-03T02:37:54.892Z,63.84
2019-03-03T02:41:00.605Z,62.65
2019-03-03T02:44:06.583Z,63.49
2019-03-03T02:47:12.317Z,64.35
2019-03-03T02:50:18.127Z,63.52
2019-03-03T02:53:23.866Z,63.82
2019-03-03T02:56:29.623Z,64.33
2019-03-03T02:59:35.357Z,65.12
2019-03-03T03:02:49.064Z,63.87
2019-03-03T03:06:12.471Z,63.33
2019-03-03T03:09:23.740Z,63.03
2019-03-03T03:12:42.466Z,65.16
2019-03-03T03:16:10.190Z,63.87
2019-03-03T03:19:22.808Z,63.68
2019-03-03T03:22:59.406Z,64.74
2019-03-03T03:26:11.373Z,64.59
2019-03-03T03:29:44.967Z,64.14
2019-03-03T03:33:15.331Z,63.30
2019-03-03T03:36:27.236Z,63.57
2019-03-03T03:39:52.829Z,63.37
2019-03-03T03:43:17.402Z,63.42
2019-03-03T03:46:51.241Z,62.23
2019-03-03T03:50:14.607Z,63.42
2019-03-03T03:53:39.144Z,62.04
2019-03-03T03:56:55.825Z,62.75
2019-03-03T04:00:20.572Z,62.93
2019-03-03T04:03:54.240Z,62.63
2019-03-03T04:07:10.861Z,62.97
2019-03-03T04:10:22.156Z,63.10
2019-03-03T04:13:37.405Z,61.64
2019-03-03T04:16:56.390Z,61.47
2019-03-03T04:20:07.659Z,61.99
2019-03-03T04:23:32.186Z,62.99
2019-03-03T04:26:59.343Z,62.29
2019-03-03T04:30:33.290Z,62.32
2019-03-03T04:34:03.746Z,62.00
2019-03-03T04:37:28.279Z,61.09
2019-03-03T04:40:52.831Z,61.83
2019-03-03T04:44:12.270Z,62.16
2019-03-03T04:47:39.595Z,60.57
2019-03-03T04:51:10.200Z,59.91
2019-03-03T04:54:27.792Z,59.83
2019-03-03T04:57:41.218Z,59.41
2019-03-03T05:01:04.494Z,60.14
2019-03-03T05:04:31.977Z,59.75
2019-03-03T05:07:56.534Z,59.74
2019-03-03T05:11:21.102Z,60.07
2019-03-03T05:14:32.745Z,58.60
2019-03-03T05:17:47.395Z,59.88
2019-03-03T05:20:53.577Z,59.49
2019-03-03T05:23:59.303Z,61.19
2019-03-03T05:27:05.159Z,61.04
2019-03-03T05:30:11.105Z,60.98
2019-03-03T05:33:16.838Z,59.85
2019-03-03T05:36:22.577Z,59.32
2019-03-03T05:39:28.389Z,59.42
2019-03-03T05:42:34.186Z,59.59
2019-03-03T05:45:39.901Z,59.15
2019-03-03T05:48:45.672Z,59.86
2019-03-03T05:51:51.361Z,58.82
2019-03-03T05:54:57.210Z,58.03
2019-03-03T05:58:02.936Z,58.00
2019-03-03T06:01:08.838Z,57.78
2019-03-03T06:04:14.540Z,57.96
2019-03-03T06:07:20.261Z,58.08
2019-03-03T06:10:25.979Z,58.76
2019-03-03T06:13:31.715Z,58.20
2019-03-03T06:16:37.453Z,57.83
2019-03-03T06:19:43.193Z,57.87
2019-03-03T06:22:48.933Z,59.43
2019-03-03T06:25:54.681Z,59.15
2019-03-03T06:29:00.403Z,57.77
2019-03-03T06:32:06.259Z,58.17
2019-03-03T06:35:12.238Z,58.62
2019-03-03T06:38:17.941Z,59.41
2019-03-03T06:41:23.668Z,58.69
2019-03-03T06:44:29.386Z,58.15
2019-03-03T06:47:35.146Z,56.90
2019-03-03T06:50:40.902Z,56.76
2019-03-03T06:53:46.597Z,56.42
2019-03-03T06:56:52.305Z,56.22
2019-03-03T06:59:58.020Z,56.97
2019-03-03T07:03:03.728Z,56.69
2019-03-03T07:06:09.449Z,56.36
2019-03-03T07:09:16.260Z,57.00
2019-03-03T07:12:21.987Z,57.03
2019-03-03T07:15:27.724Z,57.87
2019-03-03T07:18:33.451Z,57.93
2019-03-03T07:21:40.287Z,58.79
2019-03-03T07:24:46.015Z,57.40
2019-03-03T07:27:51.757Z,57.21
2019-03-03T07:30:57.558Z,56.36
2019-03-03T07:34:04.071Z,57.16
2019-03-03T07:37:09.775Z,56.54
2019-03-03T07:40:15.531Z,54.98
2019-03-03T07:43:21.267Z,54.72
2019-03-03T07:46:26.985Z,54.67
2019-03-03T07:49:32.728Z,54.47
2019-03-03T07:52:38.654Z,53.95
2019-03-03T07:55:44.376Z,53.39
2019-03-03T07:58:50.102Z,53.35
2019-03-03T08:01:55.805Z,54.03
2019-03-03T08:05:01.522Z,53.04
2019-03-03T08:08:07.334Z,52.36
2019-03-03T08:11:13.168Z,51.69
2019-03-03T08:14:18.884Z,51.81
2019-03-03T08:17:24.617Z,51.70
2019-03-03T08:20:31.432Z,51.77
2019-03-03T08:23:37.571Z,51.47
2019-03-03T08:26:43.324Z,51.29
2019-03-03T08:29:49.068Z,51.95
2019-03-03T08:32:54.794Z,52.11
2019-03-03T08:36:00.518Z,51.54
2019-03-03T08:39:08.303Z,50.87
2019-03-03T08:42:33.092Z,50.60
2019-03-03T08:46:13.006Z,51.08
2019-03-03T08:49:40.762Z,51.49
2019-03-03T08:53:02.810Z,51.41
2019-03-03T08:56:25.524Z,50.19
2019-03-03T08:59:44.055Z,50.35
2019-03-03T09:03:07.264Z,50.75
2019-03-03T09:06:30.672Z,51.78
2019-03-03T09:09:52.493Z,50.59
2019-03-03T09:13:05.412Z,50.02
2019-03-03T09:16:41.995Z,49.64
2019-03-03T09:20:12.637Z,49.30
2019-03-03T09:23:29.240Z,48.93
2019-03-03T09:26:53.717Z,49.30
2019-03-03T09:30:12.915Z,49.19
2019-03-03T09:33:36.832Z,47.26
2019-03-03T09:37:01.766Z,46.33
2019-03-03T09:40:36.484Z,49.99
2019-03-03T09:44:01.394Z,49.66
2019-03-03T09:47:31.163Z,48.63
2019-03-03T09:50:53.204Z,47.87
2019-03-03T09:54:20.579Z,47.77
2019-03-03T09:57:43.313Z,48.46
2019-03-03T10:01:07.977Z,48.84
2019-03-03T10:04:41.558Z,48.39
2019-03-03T10:08:06.108Z,49.22
2019-03-03T10:11:30.827Z,48.58
2019-03-03T10:14:45.980Z,50.09
2019-03-03T10:18:16.669Z,48.98
2019-03-03T10:21:33.142Z,47.78
2019-03-03T10:25:07.485Z,47.87
2019-03-03T10:28:38.086Z,47.18
2019-03-03T10:32:08.507Z,47.56
2019-03-03T10:35:23.323Z,46.39
2019-03-03T10:39:06.146Z,45.88
2019-03-03T10:42:32.370Z,45.29
2019-03-03T10:45:52.172Z,44.86
2019-03-03T10:49:16.752Z,45.01
2019-03-03T10:52:40.159Z,44.28
2019-03-03T10:56:07.766Z,44.72
2019-03-03T10:59:32.560Z,43.89
2019-03-03T11:03:06.102Z,44.13
2019-03-03T11:06:33.445Z,43.12
2019-03-03T11:09:49.076Z,41.61
2019-03-03T11:13:12.340Z,41.73
2019-03-03T11:16:44.268Z,40.84
2019-03-03T11:20:18.284Z,39.69
2019-03-03T11:23:49.916Z,39.25
2019-03-03T11:27:21.575Z,39.69
2019-03-03T11:30:46.231Z,39.74
2019-03-03T11:34:16.390Z,40.52
2019-03-03T11:37:30.430Z,39.39
2019-03-03T11:40:58.425Z,39.45
2019-03-03T11:44:41.883Z,39.06
2019-03-03T11:48:19.856Z,38.98
2019-03-03T11:51:39.318Z,37.91
2019-03-03T11:54:53.407Z,37.08
2019-03-03T11:58:07.610Z,37.77
2019-03-03T12:01:45.975Z,37.42
2019-03-03T12:05:16.825Z,37.92
2019-03-03T12:08:41.622Z,39.09
2019-03-03T12:12:02.883Z,39.08
2019-03-03T12:15:24.004Z,39.17
2019-03-03T12:18:51.617Z,39.30
2019-03-03T12:22:04.337Z,39.63
2019-03-03T12:25:30.679Z,39.90
2019-03-03T12:28:55.252Z,40.08
2019-03-03T12:32:20.990Z,39.42
2019-03-03T12:35:37.445Z,39.77
2019-03-03T12:39:07.951Z,39.87
2019-03-03T12:42:29.901Z,38.69
2019-03-03T12:45:53.531Z,37.98
2019-03-03T12:49:24.223Z,37.13
2019-03-03T12:52:47.638Z,36.88
2019-03-03T12:56:30.336Z,37.54
2019-03-03T12:59:55.874Z,37.42
2019-03-03T13:03:29.471Z,36.85
2019-03-03T13:06:53.024Z,36.50
2019-03-03T13:10:20.786Z,35.75
2019-03-03T13:13:54.587Z,35.92
2019-03-03T13:17:37.771Z,35.74
2019-03-03T13:21:10.830Z,36.65
2019-03-03T13:24:28.954Z,36.24
2019-03-03T13:28:02.795Z,36.33
2019-03-03T13:31:45.698Z,36.48
2019-03-03T13:35:08.896Z,35.92
2019-03-03T13:38:24.661Z,35.43
2019-03-03T13:41:52.663Z,35.20
2019-03-03T13:44:58.597Z,34.58
2019-03-03T13:48:04.735Z,34.67
2019-03-03T13:51:10.551Z,34.78
2019-03-03T13:54:16.298Z,35.25
2019-03-03T13:57:22.175Z,35.31
2019-03-03T14:00:27.915Z,35.71
2019-03-03T14:03:33.753Z,36.98
2019-03-03T14:06:39.660Z,36.68
2019-03-03T14:09:45.486Z,37.54
2019-03-03T14:12:51.304Z,38.23
2019-03-03T14:15:58.229Z,37.92
2019-03-03T14:19:04.119Z,37.67
2019-03-03T14:22:09.943Z,38.16
2019-03-03T14:25:16.421Z,38.89
2019-03-03T14:28:22.342Z,38.66
2019-03-03T14:31:28.171Z,37.96
2019-03-03T14:34:33.926Z,38.07
2019-03-03T14:37:39.789Z,37.76
2019-03-03T14:40:45.751Z,37.78
2019-03-03T14:43:51.562Z,38.74
2019-03-03T14:46:57.324Z,40.10
2019-03-03T14:50:03.401Z,40.34
2019-03-03T14:53:09.222Z,40.52
2019-03-03T14:56:15.020Z,41.48
2019-03-03T14:59:20.759Z,40.89
2019-03-03T15:02:26.597Z,40.52
2019-03-03T15:05:32.747Z,39.86
2019-03-03T15:08:38.465Z,39.91
2019-03-03T15:11:44.162Z,39.87
2019-03-03T15:14:50.011Z,37.67
2019-03-03T15:17:55.841Z,36.64
2019-03-03T15:21:01.719Z,36.39
2019-03-03T15:24:07.676Z,36.85
2019-03-03T15:27:13.476Z,36.73
2019-03-03T15:30:20.636Z,36.75
2019-03-03T15:33:26.451Z,36.79
2019-03-03T15:36:32.780Z,37.27
2019-03-03T15:39:38.513Z,37.34
2019-03-03T15:42:44.986Z,36.70
2019-03-03T15:45:50.922Z,35.64
2019-03-03T15:48:56.744Z,35.25
2019-03-03T15:52:02.584Z,35.18
2019-03-03T15:55:10.174Z,35.47
2019-03-03T15:58:15.927Z,35.38
2019-03-03T16:01:21.856Z,35.50
2019-03-03T16:04:27.700Z,35.67
2019-03-03T16:07:33.540Z,35.58
2019-03-03T16:10:39.269Z,35.59
2019-03-03T16:13:44.986Z,35.35
2019-03-03T16:16:50.808Z,35.36
2019-03-03T16:19:56.527Z,35.53
2019-03-03T16:23:02.396Z,35.58
2019-03-03T16:26:08.144Z,35.69
2019-03-03T16:29:13.891Z,35.92
2019-03-03T16:32:19.707Z,36.01
2019-03-03T16:35:25.565Z,35.92
2019-03-03T16:38:31.319Z,36.20
2019-03-03T16:41:37.081Z,36.02
2019-03-03T16:44:42.803Z,36.21
2019-03-03T16:47:48.744Z,36.38
2019-03-03T16:50:54.483Z,36.31
2019-03-03T16:54:00.203Z,36.18
2019-03-03T16:57:06.153Z,36.31
2019-03-03T17:00:17.376Z,36.42
2019-03-03T17:03:23.102Z,36.85
2019-03-03T17:06:28.944Z,37.02
2019-03-03T17:09:34.728Z,37.44
2019-03-03T17:12:40.594Z,37.68
2019-03-03T17:15:46.444Z,36.99
2019-03-03T17:18:52.203Z,36.96
2019-03-03T17:21:57.943Z,37.09
2019-03-03T17:25:03.797Z,37.10
2019-03-03T17:28:09.559Z,37.58
2019-03-03T17:31:15.310Z,37.41
2019-03-03T17:34:21.035Z,37.46
2019-03-03T17:37:26.855Z,37.53
2019-03-03T17:40:32.694Z,37.41
2019-03-03T17:43:38.457Z,37.37
2019-03-03T17:46:44.222Z,37.58
2019-03-03T17:49:49.954Z,37.82
2019-03-03T17:52:55.839Z,37.93
2019-03-03T17:56:01.582Z,37.45
2019-03-03T17:59:07.405Z,37.73
2019-03-03T18:02:13.266Z,38.11
2019-03-03T18:05:20.443Z,37.47
2019-03-03T18:08:26.298Z,37.86
2019-03-03T18:11:32.029Z,38.31
2019-03-03T18:14:37.804Z,38.36
2019-03-03T18:17:43.753Z,37.98
2019-03-03T18:20:49.515Z,38.03
2019-03-03T18:23:55.255Z,37.58
2019-03-03T18:27:00.977Z,37.77
2019-03-03T18:30:08.433Z,37.78
2019-03-03T18:33:14.146Z,37.76
2019-03-03T18:36:19.908Z,37.67
2019-03-03T18:39:25.662Z,37.77
2019-03-03T18:42:31.470Z,37.78
2019-03-03T18:45:37.231Z,38.11
2019-03-03T18:48:42.944Z,38.08
2019-03-03T18:51:48.648Z,38.73
2019-03-03T18:54:54.360Z,41.12
2019-03-03T18:58:00.286Z,41.98
2019-03-03T19:01:06.747Z,42.36
2019-03-03T19:04:12.522Z,43.00
2019-03-03T19:07:18.369Z,42.84
2019-03-03T19:10:25.335Z,43.48
2019-03-03T19:13:31.239Z,43.16
2019-03-03T19:16:36.956Z,44.46
2019-03-03T19:19:44.761Z,45.02
2019-03-03T19:22:50.823Z,45.23
2019-03-03T19:25:56.550Z,46.70
2019-03-03T19:29:03.272Z,46.65
2019-03-03T19:32:09.198Z,46.80
2019-03-03T19:35:15.031Z,47.11
2019-03-03T19:38:20.970Z,47.09
2019-03-03T19:41:26.786Z,47.43
2019-03-03T19:44:32.678Z,48.62
2019-03-03T19:47:38.618Z,48.18
2019-03-03T19:50:44.457Z,48.34
2019-03-03T19:53:50.408Z,49.07
2019-03-03T19:56:56.376Z,48.65
2019-03-03T20:00:02.233Z,49.35
2019-03-03T20:03:09.857Z,48.75
2019-03-03T20:06:15.700Z,49.35
2019-03-03T20:09:21.471Z,49.77
2019-03-03T20:12:27.238Z,50.00
2019-03-03T20:15:33.298Z,50.28
2019-03-03T20:18:39.095Z,50.42
2019-03-03T20:21:45.375Z,51.65
2019-03-03T20:24:51.330Z,51.57
2019-03-03T20:27:57.026Z,52.04
2019-03-03T20:31:03.145Z,52.93
2019-03-03T20:34:08.881Z,52.70
2019-03-03T20:37:14.726Z,52.40
2019-03-03T20:40:20.558Z,53.19
2019-03-03T20:43:26.240Z,52.27
2019-03-03T20:46:31.977Z,52.67
2019-03-03T20:49:37.756Z,53.50
2019-03-03T20:52:43.812Z,52.46
2019-03-03T20:55:49.596Z,52.72
2019-03-03T20:58:55.339Z,53.30
2019-03-03T21:02:01.066Z,54.39
2019-03-03T21:05:08.105Z,54.53
2019-03-03T21:08:13.863Z,54.04
2019-03-03T21:11:19.618Z,54.31
2019-03-03T21:14:25.353Z,54.83
2019-03-03T21:17:31.064Z,54.90
2019-03-03T21:20:36.804Z,54.38
2019-03-03T21:23:42.540Z,54.28
2019-03-03T21:26:48.287Z,54.96
2019-03-03T21:29:54.043Z,55.89
2019-03-03T21:32:59.764Z,55.37
2019-03-03T21:36:05.698Z,55.67
2019-03-03T21:39:12.054Z,54.98
2019-03-03T21:42:18.089Z,55.60
2019-03-03T21:45:24.263Z,55.10
2019-03-03T21:48:30.115Z,54.80
2019-03-03T21:51:35.897Z,55.67
2019-03-03T21:54:41.612Z,54.18
2019-03-03T21:57:47.364Z,54.50
2019-03-03T22:00:53.407Z,54.55
2019-03-03T22:03:59.148Z,54.67
2019-03-03T22:07:04.874Z,54.65
2019-03-03T22:10:10.735Z,54.22
2019-03-03T22:13:16.426Z,54.79
2019-03-03T22:16:22.172Z,55.12
2019-03-03T22:19:27.943Z,55.77
2019-03-03T22:22:33.664Z,55.88
2019-03-03T22:25:39.429Z,55.59
2019-03-03T22:28:45.143Z,55.58
2019-03-03T22:31:50.888Z,55.89
2019-03-03T22:34:56.610Z,56.01
2019-03-03T22:38:02.321Z,55.58
2019-03-03T22:41:08.023Z,55.98
2019-03-03T22:44:13.760Z,55.82
2019-03-03T22:47:19.510Z,54.37
2019-03-03T22:50:25.206Z,54.67
2019-03-03T22:53:30.931Z,54.44
2019-03-03T22:56:36.655Z,54.65
2019-03-03T22:59:42.362Z,55.26
2019-03-03T23:02:48.070Z,54.21
2019-03-03T23:06:17.099Z,54.79
2019-03-03T23:10:08.860Z,55.13
2019-03-03T23:14:01.158Z,54.82
2019-03-03T23:17:26.378Z,54.62
2019-03-03T23:21:03.986Z,55.08
